Time;durP1;ratioP1;P1;durP2;ratioP2;P2;SDS_P1;SDS_P2;PMS_P1;PMS_P2;Temp;Humidity;BMP_temperature;BMP_pressure;BME280_temperature;BME280_humidity;BME280_pressure;Samples;Min_cycle;Max_cycle;Signal;HPM_P1;HPM_P2
2023/03/08 00:00:19;;;;;;;19.85;7.75;;;;;;;0.56;100.00;98699.64;5134924;55;1136560;-76
2023/03/08 00:05:27;;;;;;;51.50;15.18;;;;;;;0.57;100.00;98702.14;5204433;55;1136701;-76
2023/03/08 00:10:32;;;;;;;11.33;5.43;;;;;;;0.58;100.00;98700.38;5183907;55;1138845;-75
2023/03/08 00:15:39;;;;;;;45.93;14.10;;;;;;;0.59;100.00;98707.24;5183790;55;1136870;-78
2023/03/08 00:20:45;;;;;;;16.70;6.40;;;;;;;0.59;100.00;98700.73;5151158;55;1138678;-76
2023/03/08 00:25:56;;;;;;;9.53;5.10;;;;;;;0.58;100.00;98710.77;5017582;57;1136873;-77
2023/03/08 00:31:08;;;;;;;16.23;7.27;;;;;;;0.56;100.00;98710.04;5153681;55;1134687;-78
2023/03/08 00:36:19;;;;;;;13.00;5.50;;;;;;;0.52;100.00;98710.70;5173371;55;1136829;-78
2023/03/08 00:41:25;;;;;;;3.02;2.72;;;;;;;0.51;100.00;98725.10;5152802;55;1136774;-82
2023/03/08 00:46:31;;;;;;;24.30;8.30;;;;;;;0.45;100.00;98720.31;5152828;56;1134597;-76
2023/03/08 00:51:37;;;;;;;17.57;7.83;;;;;;;0.44;100.00;98733.78;5173112;55;1136686;-79
2023/03/08 00:56:42;;;;;;;7.53;4.67;;;;;;;0.43;100.00;98732.58;5138944;55;1136551;-75
2023/03/08 01:01:48;;;;;;;10.87;5.73;;;;;;;0.40;100.00;98736.67;5097051;56;1134643;-75
2023/03/08 01:06:54;;;;;;;12.13;6.83;;;;;;;0.38;100.00;98741.14;5096934;56;1136792;-81
2023/03/08 01:12:00;;;;;;;8.07;5.70;;;;;;;0.35;100.00;98745.59;5117381;56;1136723;-78
2023/03/08 01:17:07;;;;;;;14.20;7.77;;;;;;;0.31;100.00;98748.02;5097462;56;1134758;-77
2023/03/08 01:22:13;;;;;;;9.40;6.27;;;;;;;0.30;100.00;98748.14;5079765;55;1136745;-75
2023/03/08 01:27:19;;;;;;;6.27;4.83;;;;;;;0.26;100.00;98755.30;5152026;55;1134440;-79
2023/03/08 01:32:24;;;;;;;11.93;6.58;;;;;;;0.27;100.00;98752.23;5131461;55;1134497;-78
2023/03/08 01:37:33;;;;;;;20.48;6.50;;;;;;;0.26;100.00;98762.27;5131452;55;1136835;-77
2023/03/08 01:42:40;;;;;;;10.10;6.85;;;;;;;0.25;100.00;98757.99;5150885;55;1136735;-75
2023/03/08 01:47:45;;;;;;;9.63;6.10;;;;;;;0.24;100.00;98755.86;5131250;55;1136619;-77
2023/03/08 01:52:58;;;;;;;11.63;5.33;;;;;;;0.21;100.00;98755.21;5130581;55;1134668;-77
2023/03/08 01:58:04;;;;;;;17.95;6.50;;;;;;;0.18;100.00;98763.20;5130694;55;1136771;-76
2023/03/08 02:03:12;;;;;;;9.97;5.30;;;;;;;0.16;100.00;98769.79;5151159;56;1136675;-76
2023/03/08 02:08:18;;;;;;;14.73;6.07;;;;;;;0.14;100.00;98774.28;5131069;56;1134599;-80
2023/03/08 02:13:26;;;;;;;7.78;4.17;;;;;;;0.13;100.00;98786.07;5131201;56;1136608;-78
2023/03/08 02:18:33;;;;;;;12.37;4.63;;;;;;;0.12;100.00;98793.50;5150830;55;1134553;-78
2023/03/08 02:23:39;;;;;;;15.37;7.57;;;;;;;0.06;100.00;98789.97;5131021;55;1136644;-75
2023/03/08 02:28:46;;;;;;;7.73;4.63;;;;;;;0.04;100.00;98801.75;5130849;55;1136852;-78
2023/03/08 02:33:51;;;;;;;8.00;4.53;;;;;;;0.03;100.00;98797.95;5131373;55;1134617;-77
2023/03/08 02:38:57;;;;;;;8.40;5.80;;;;;;;-0.04;100.00;98800.11;5151281;55;1134474;-75
2023/03/08 02:44:05;;;;;;;16.07;5.80;;;;;;;-0.05;100.00;98804.94;5131257;55;1136722;-81
2023/03/08 02:49:12;;;;;;;12.20;6.13;;;;;;;-0.09;100.00;98810.77;5125141;55;1138763;-76
2023/03/08 02:54:18;;;;;;;9.85;4.83;;;;;;;-0.13;100.00;98816.25;5151356;55;1138821;-79
2023/03/08 02:59:25;;;;;;;11.23;5.13;;;;;;;-0.13;100.00;98826.64;5130726;55;1136813;-79
2023/03/08 03:04:34;;;;;;;6.30;4.80;;;;;;;-0.17;100.00;98832.97;5145505;55;1138864;-76
2023/03/08 03:09:40;;;;;;;9.93;4.30;;;;;;;-0.17;100.00;98832.97;5149677;55;1136681;-78
2023/03/08 03:14:47;;;;;;;11.13;4.33;;;;;;;-0.20;100.00;98837.88;5147397;55;1136747;-76
2023/03/08 03:19:54;;;;;;;12.13;5.93;;;;;;;-0.21;100.00;98848.36;5153231;55;1138747;-76
2023/03/08 03:25:00;;;;;;;15.03;6.53;;;;;;;-0.23;100.00;98856.25;5207879;55;1138791;-76
2023/03/08 03:30:09;;;;;;;19.03;7.40;;;;;;;-0.26;100.00;98861.62;5227993;55;1138877;-75
2023/03/08 03:35:16;;;;;;;5.83;4.33;;;;;;;-0.27;100.00;98865.61;5186185;55;1219297;-75
2023/03/08 03:40:22;;;;;;;10.27;5.60;;;;;;;-0.30;100.00;98863.19;5208090;55;1136598;-75
2023/03/08 03:45:29;;;;;;;12.53;5.00;;;;;;;-0.33;100.00;98871.19;5219917;55;1138952;-75
2023/03/08 03:50:35;;;;;;;7.60;5.03;;;;;;;-0.36;100.00;98870.91;5201034;55;1139018;-78
2023/03/08 03:55:44;;;;;;;11.20;6.03;;;;;;;-0.42;100.00;98872.55;5205610;55;1136645;-78
2023/03/08 04:00:51;;;;;;;10.30;6.80;;;;;;;-0.44;100.00;98874.40;5198279;55;1138829;-79
2023/03/08 04:06:15;;;;;;;10.18;5.50;;;;;;;-0.46;100.00;98889.27;5206927;55;1138792;-77
2023/03/08 04:11:26;;;;;;;13.22;5.90;;;;;;;-0.48;100.00;98891.11;5185583;55;1138965;-77
2023/03/08 04:16:37;;;;;;;8.68;5.60;;;;;;;-0.47;100.00;98892.78;5140445;55;1138932;-75
2023/03/08 04:21:44;;;;;;;39.63;11.38;;;;;;;-0.48;100.00;98894.54;5205371;55;1136632;-77
2023/03/08 04:26:53;;;;;;;47.70;8.40;;;;;;;-0.50;100.00;98897.69;5173280;55;1140824;-77
2023/03/08 04:31:59;;;;;;;15.77;6.27;;;;;;;-0.50;100.00;98902.05;5189179;55;1138751;-78
2023/03/08 04:37:07;;;;;;;11.00;6.10;;;;;;;-0.51;100.00;98896.47;5189755;55;1138826;-74
2023/03/08 04:42:13;;;;;;;11.97;5.60;;;;;;;-0.52;100.00;98904.72;5105425;55;1138797;-79
2023/03/08 04:47:19;;;;;;;21.80;6.17;;;;;;;-0.52;100.00;98906.48;5098007;55;1138599;-79
2023/03/08 04:52:26;;;;;;;16.50;6.40;;;;;;;-0.54;100.00;98916.13;5117889;56;1139087;-75
2023/03/08 04:57:34;;;;;;;11.17;5.50;;;;;;;-0.56;100.00;98925.30;5112668;55;1138865;-77
2023/03/08 05:02:39;;;;;;;17.57;5.97;;;;;;;-0.59;100.00;98925.46;5108267;55;1138730;-77
2023/03/08 05:07:47;;;;;;;30.13;7.93;;;;;;;-0.58;100.00;98931.03;5131719;55;1138820;-75
2023/03/08 05:12:52;;;;;;;13.77;6.23;;;;;;;-0.58;100.00;98932.33;5164340;55;1138825;-79
2023/03/08 05:17:59;;;;;;;6.73;4.77;;;;;;;-0.60;100.00;98939.37;5100877;55;1138865;-75
2023/03/08 05:23:07;;;;;;;29.27;10.07;;;;;;;-0.62;100.00;98947.73;5142354;55;1136693;-72
2023/03/08 05:28:14;;;;;;;18.47;5.60;;;;;;;-0.67;100.00;98952.34;5118299;55;1140730;-73
2023/03/08 05:33:21;;;;;;;22.50;5.73;;;;;;;-0.72;100.00;98957.78;5097382;55;1138740;-76
2023/03/08 05:38:28;;;;;;;5.45;4.30;;;;;;;-0.73;100.00;98958.70;5123314;55;1138955;-80
2023/03/08 05:43:36;;;;;;;8.17;4.67;;;;;;;-0.78;100.00;98963.34;5097933;55;1137059;-78
2023/03/08 05:48:43;;;;;;;21.67;9.40;;;;;;;-0.79;100.00;98966.02;5098870;55;1137046;-73
2023/03/08 05:53:50;;;;;;;21.50;6.10;;;;;;;-0.81;100.00;98978.23;5035111;56;1139062;-76
2023/03/08 05:58:57;;;;;;;9.40;4.47;;;;;;;-0.79;100.00;98985.02;5120355;55;1138979;-80
2023/03/08 06:04:04;;;;;;;9.70;5.08;;;;;;;-0.76;100.00;98995.20;5157311;56;1136788;-76
2023/03/08 06:09:12;;;;;;;8.90;3.87;;;;;;;-0.73;100.00;99003.29;5140990;55;1136664;-74
2023/03/08 06:14:18;;;;;;;8.57;4.23;;;;;;;-0.71;100.00;98996.26;5135254;55;1136698;-76
2023/03/08 06:19:24;;;;;;;27.82;9.68;;;;;;;-0.63;100.00;99007.06;5101002;55;1136687;-78
2023/03/08 06:24:32;;;;;;;28.03;9.77;;;;;;;-0.54;100.00;99007.84;5101598;55;1139027;-76
2023/03/08 06:29:39;;;;;;;30.47;9.50;;;;;;;-0.47;100.00;99006.58;5142998;55;1138799;-78
2023/03/08 06:34:46;;;;;;;10.53;5.35;;;;;;;-0.41;100.00;99015.30;5117933;55;1138868;-77
2023/03/08 06:39:54;;;;;;;16.80;6.80;;;;;;;-0.36;100.00;99024.98;5146989;55;1138761;-75
2023/03/08 06:45:00;;;;;;;14.98;5.42;;;;;;;-0.23;100.00;99029.01;5180997;55;1138861;-76
2023/03/08 06:50:06;;;;;;;32.17;13.80;;;;;;;-0.10;100.00;99029.13;5222599;55;1138808;-74
2023/03/08 06:55:13;;;;;;;45.77;16.87;;;;;;;0.07;100.00;99045.05;5198008;55;1141118;-78
2023/03/08 07:00:20;;;;;;;25.23;11.40;;;;;;;0.20;100.00;99051.20;5198932;55;1138907;-77
2023/03/08 07:05:26;;;;;;;21.40;11.97;;;;;;;0.22;100.00;99054.09;5174917;55;1138902;-77
2023/03/08 07:10:32;;;;;;;11.55;5.80;;;;;;;0.23;100.00;99062.27;5060578;55;1138687;-74
2023/03/08 07:15:40;;;;;;;16.47;7.67;;;;;;;0.19;100.00;99065.13;5079513;56;1136585;-78
2023/03/08 07:20:46;;;;;;;11.27;5.47;;;;;;;0.16;100.00;99071.33;5097898;56;1136715;-76
2023/03/08 07:25:52;;;;;;;9.90;4.85;;;;;;;0.24;100.00;99076.10;5129443;55;1136823;-79
2023/03/08 07:30:58;;;;;;;10.97;4.90;;;;;;;0.23;100.00;99083.06;5133485;55;1134664;-78
2023/03/08 07:36:04;;;;;;;7.97;5.27;;;;;;;0.20;100.00;99085.83;5075912;56;1136728;-79
2023/03/08 07:41:10;;;;;;;16.90;7.15;;;;;;;0.25;100.00;99089.47;5136174;55;1134592;-75
2023/03/08 07:46:16;;;;;;;14.47;5.13;;;;;;;0.37;100.00;99090.05;5158216;55;1136744;-80
2023/03/08 07:51:22;;;;;;;17.73;9.30;;;;;;;0.58;100.00;99100.97;5231685;55;1139322;-79
2023/03/08 07:56:28;;;;;;;13.37;5.67;;;;;;;0.72;100.00;99106.17;5211106;55;1136666;-81
2023/03/08 08:01:34;;;;;;;13.80;6.90;;;;;;;0.75;100.00;99101.26;5194192;55;1136889;-76
2023/03/08 08:06:41;;;;;;;8.33;4.83;;;;;;;0.89;100.00;99103.86;5190497;55;1136566;-76
2023/03/08 08:11:48;;;;;;;11.17;4.87;;;;;;;1.03;100.00;99100.79;5137060;54;1134626;-78
2023/03/08 08:16:54;;;;;;;7.73;3.50;;;;;;;1.16;100.00;99104.77;5165904;55;1137090;-75
2023/03/08 08:22:00;;;;;;;3.43;2.83;;;;;;;1.11;100.00;99106.81;5137659;55;1134749;-74
2023/03/08 08:27:07;;;;;;;8.10;4.20;;;;;;;1.20;100.00;99115.38;5180085;55;1134683;-78
2023/03/08 08:32:13;;;;;;;11.23;3.13;;;;;;;1.23;100.00;99112.56;5134254;55;1134811;-76
2023/03/08 08:37:21;;;;;;;10.32;3.37;;;;;;;1.32;100.00;99112.47;5141212;55;1136909;-74
2023/03/08 08:42:27;;;;;;;6.33;3.80;;;;;;;1.12;100.00;99115.46;5103091;56;1136611;-76
2023/03/08 08:47:33;;;;;;;13.27;5.77;;;;;;;1.10;100.00;99123.83;5102239;55;1134671;-75
2023/03/08 08:52:40;;;;;;;12.87;4.97;;;;;;;1.21;100.00;99124.03;5097502;55;1136627;-74
2023/03/08 08:57:46;;;;;;;9.57;4.50;;;;;;;1.35;100.00;99124.02;5124146;55;1136910;-77
2023/03/08 09:02:52;;;;;;;12.03;6.17;;;;;;;1.47;100.00;99120.63;5184178;55;1134606;-72
2023/03/08 09:08:00;;;;;;;11.65;6.10;;;;;;;1.55;100.00;99130.56;5125497;55;1136645;-71
2023/03/08 09:13:07;;;;;;;8.13;5.13;;;;;;;1.68;100.00;99125.77;5166352;55;1136662;-73
2023/03/08 09:18:12;;;;;;;11.30;4.10;;;;;;;1.68;100.00;99125.77;5151877;55;1134513;-73
2023/03/08 09:23:19;;;;;;;9.00;3.87;;;;;;;1.75;100.00;99129.68;5064594;55;1136761;-73
2023/03/08 09:28:25;;;;;;;7.57;2.97;;;;;;;1.66;100.00;99128.14;5119263;54;1134821;-76
2023/03/08 09:33:32;;;;;;;12.98;3.55;;;;;;;1.71;100.00;99132.11;5117566;56;1134722;-75
2023/03/08 09:38:38;;;;;;;2.70;2.50;;;;;;;2.01;100.00;99124.55;5072942;55;1136777;-76
2023/03/08 09:44:17;;;;;;;8.90;2.47;;;;;;;2.28;100.00;99141.03;5065091;57;1134689;-75
2023/03/08 09:49:32;;;;;;;7.90;4.00;;;;;;;2.29;100.00;99125.72;5120255;55;1134653;-75
2023/03/08 09:54:39;;;;;;;3.70;2.60;;;;;;;2.14;100.00;99133.25;5195313;55;1134690;-75
2023/03/08 09:59:58;;;;;;;8.70;2.17;;;;;;;2.07;100.00;99141.95;5188904;55;1134622;-79
2023/03/08 10:05:23;;;;;;;3.67;3.30;;;;;;;1.99;100.00;99132.47;5127489;55;1134762;-74
2023/03/08 10:11:07;;;;;;;4.83;3.00;;;;;;;2.19;100.00;99131.19;5173048;55;1134745;-78
2023/03/08 10:16:27;;;;;;;17.87;7.87;;;;;;;2.29;100.00;99136.16;5145341;55;1134749;-75
2023/03/08 10:21:37;;;;;;;3.03;1.83;;;;;;;2.22;100.00;99128.85;5229488;55;1137048;-79
2023/03/08 10:26:44;;;;;;;10.82;3.45;;;;;;;2.21;100.00;99116.28;5137311;55;1134586;-75
2023/03/08 10:31:50;;;;;;;7.72;2.50;;;;;;;2.22;100.00;99121.02;5191814;55;1136573;-78
2023/03/08 10:37:05;;;;;;;7.03;3.87;;;;;;;2.22;100.00;99110.59;5211214;55;1134870;-76
2023/03/08 10:42:19;;;;;;;14.83;4.93;;;;;;;2.37;100.00;99104.36;5234190;55;1134661;-76
2023/03/08 10:47:35;;;;;;;6.27;2.97;;;;;;;2.68;100.00;99108.36;5192656;55;1137132;-76
2023/03/08 10:52:41;;;;;;;9.47;3.67;;;;;;;2.99;100.00;99105.79;5199742;55;1134686;-75
2023/03/08 10:58:01;;;;;;;7.40;3.30;;;;;;;2.97;100.00;99106.36;5222320;55;1134701;-75
2023/03/08 11:03:20;;;;;;;7.45;4.00;;;;;;;2.92;100.00;99098.84;5118781;55;1134820;-74
2023/03/08 11:08:38;;;;;;;5.57;2.77;;;;;;;3.01;100.00;99088.24;5205780;55;1134728;-73
2023/03/08 11:13:47;;;;;;;6.50;1.93;;;;;;;3.22;100.00;99085.42;5191722;55;1134830;-76
2023/03/08 11:19:12;;;;;;;6.43;3.53;;;;;;;3.12;100.00;99081.80;5170419;55;1134829;-76
2023/03/08 11:24:42;;;;;;;9.08;3.05;;;;;;;3.16;100.00;99070.20;5184547;55;1135382;-79
2023/03/08 11:30:07;;;;;;;7.00;4.07;;;;;;;3.17;100.00;99071.39;5217408;55;1134836;-80
2023/03/08 11:35:39;;;;;;;5.27;2.20;;;;;;;3.29;100.00;99063.63;5196593;55;1134497;-73
2023/03/08 11:40:53;;;;;;;6.77;2.83;;;;;;;3.34;100.00;99059.76;5180621;55;1134652;-74
2023/03/08 11:46:04;;;;;;;5.83;3.10;;;;;;;3.28;100.00;99062.80;5184252;55;1134655;-74
2023/03/08 11:51:26;;;;;;;7.57;3.60;;;;;;;3.24;100.00;99066.55;5220566;55;1135048;-77
2023/03/08 11:56:49;;;;;;;9.40;3.43;;;;;;;3.23;100.00;99060.97;5203338;55;1134907;-74
2023/03/08 12:02:20;;;;;;;5.87;3.37;;;;;;;3.24;100.00;99056.58;5139612;55;1134925;-76
2023/03/08 12:07:51;;;;;;;7.73;3.87;;;;;;;3.23;100.00;99064.05;5032699;56;1134729;-74
2023/03/08 12:13:01;;;;;;;10.87;5.90;;;;;;;3.19;100.00;99046.47;5166547;55;1135701;-71
2023/03/08 12:18:35;;;;;;;6.90;3.47;;;;;;;3.22;100.00;99038.39;5190295;55;1136778;-72
2023/03/08 12:24:00;;;;;;;9.43;4.53;;;;;;;3.25;100.00;99028.20;4941016;56;1134647;-75
2023/03/08 12:29:22;;;;;;;4.47;3.25;;;;;;;3.21;100.00;99024.97;5130828;55;1134937;-80
2023/03/08 12:34:42;;;;;;;6.57;4.43;;;;;;;3.20;100.00;99014.66;5135439;55;1134625;-75
2023/03/08 12:40:10;;;;;;;9.93;5.63;;;;;;;3.13;100.00;99002.48;5155271;55;1134859;-73
2023/03/08 12:45:26;;;;;;;10.93;5.53;;;;;;;3.08;100.00;99009.80;5167432;55;1135118;-71
2023/03/08 12:50:37;;;;;;;29.33;8.87;;;;;;;3.06;100.00;98999.47;5157208;55;1136800;-72
2023/03/08 12:55:43;;;;;;;5.90;3.97;;;;;;;3.08;100.00;98996.75;5182949;55;1136891;-73
2023/03/08 13:00:59;;;;;;;7.43;4.30;;;;;;;3.11;100.00;98986.09;5207379;55;1134591;-74
2023/03/08 13:06:27;;;;;;;23.27;11.70;;;;;;;3.11;100.00;98978.25;5207624;55;1134733;-76
2023/03/08 13:11:44;;;;;;;8.70;5.37;;;;;;;3.20;100.00;98980.70;5209396;55;1139023;-76
2023/03/08 13:16:50;;;;;;;8.23;4.85;;;;;;;3.23;100.00;98972.14;5212930;55;1134792;-77
2023/03/08 13:22:17;;;;;;;6.40;3.40;;;;;;;3.30;100.00;98970.77;5179211;55;1134769;-79
2023/03/08 13:27:47;;;;;;;8.50;3.40;;;;;;;3.34;100.00;98959.63;5195692;55;1135095;-79
2023/03/08 13:32:53;;;;;;;7.90;3.25;;;;;;;3.32;100.00;98964.96;5150240;55;1134749;-79
2023/03/08 13:38:01;;;;;;;4.15;2.95;;;;;;;3.25;100.00;98972.87;5126081;55;1134745;-78
2023/03/08 13:43:10;;;;;;;9.50;3.20;;;;;;;3.24;100.00;98965.14;5146725;55;1134686;-77
2023/03/08 13:48:18;;;;;;;5.83;4.00;;;;;;;3.23;100.00;98959.08;5111577;56;1134734;-78
2023/03/08 13:53:31;;;;;;;7.60;3.57;;;;;;;3.25;100.00;98962.89;5147555;55;1134621;-78
2023/03/08 13:58:47;;;;;;;;;;;;;;;3.25;100.00;98951.97;5232231;55;1134785;-75
2023/03/08 14:03:57;;;;;;;7.83;5.40;;;;;;;3.31;100.00;98947.61;5236418;55;972156;-77
2023/03/08 14:09:02;;;;;;;7.08;4.42;;;;;;;3.33;100.00;98944.42;5186220;55;1132537;-78
2023/03/08 14:14:15;;;;;;;15.88;8.53;;;;;;;3.39;100.00;98943.95;5203484;55;1134646;-82
2023/03/08 14:19:26;;;;;;;;;;;;;;;3.43;100.00;98945.41;5176762;55;1136826;-76
2023/03/08 14:24:35;;;;;;;8.30;5.70;;;;;;;3.41;100.00;98943.38;5173959;55;971918;-77
2023/03/08 14:29:42;;;;;;;9.50;5.73;;;;;;;3.38;100.00;98945.37;5136335;56;1132522;-74
2023/03/08 14:34:50;;;;;;;17.40;6.50;;;;;;;3.34;100.00;98939.56;5111196;55;1134679;-76
2023/03/08 14:40:29;;;;;;;9.37;5.60;;;;;;;3.33;100.00;98951.42;5110228;56;1136867;-76
2023/03/08 14:45:41;;;;;;;13.40;6.95;;;;;;;3.30;100.00;98940.72;5103677;56;1134672;-76
2023/03/08 14:51:01;;;;;;;10.40;7.03;;;;;;;3.29;100.00;98934.30;5165923;55;1136792;-75
2023/03/08 14:56:13;;;;;;;15.37;7.53;;;;;;;3.26;100.00;98926.20;5159251;55;1136658;-78
2023/03/08 15:01:35;;;;;;;14.83;8.03;;;;;;;3.27;100.00;98923.95;5174457;55;1136740;-78
2023/03/08 15:06:43;;;;;;;131.20;49.57;;;;;;;3.26;100.00;98921.45;5206817;55;1136995;-74
2023/03/08 15:11:52;;;;;;;118.62;34.45;;;;;;;3.28;100.00;98913.87;5134475;55;1141344;-77
2023/03/08 15:16:59;;;;;;;21.77;10.60;;;;;;;3.32;100.00;98906.64;5092726;56;1141198;-78
2023/03/08 15:22:06;;;;;;;20.85;10.43;;;;;;;3.32;100.00;98907.95;5127676;55;1138820;-76
2023/03/08 15:27:15;;;;;;;60.67;15.97;;;;;;;3.28;100.00;98911.25;5010463;56;1138778;-74
2023/03/08 15:32:21;;;;;;;27.33;11.17;;;;;;;3.28;100.00;98898.19;5090873;56;1244778;-75
2023/03/08 15:37:27;;;;;;;23.00;11.07;;;;;;;3.27;100.00;98895.69;5101560;55;1138839;-79
2023/03/08 15:42:35;;;;;;;97.90;22.77;;;;;;;3.22;100.00;98892.56;5126126;56;1139088;-74
2023/03/08 15:47:41;;;;;;;91.00;34.73;;;;;;;3.23;100.00;98892.45;5173145;55;1139228;-79
2023/03/08 15:52:47;;;;;;;37.27;18.07;;;;;;;3.27;100.00;98890.46;5196689;55;1138824;-75
2023/03/08 15:57:53;;;;;;;97.87;32.43;;;;;;;3.26;100.00;98891.41;5188684;55;1139018;-82
2023/03/08 16:02:59;;;;;;;62.10;24.87;;;;;;;3.26;100.00;98890.10;5199743;55;1138900;-72
2023/03/08 16:08:06;;;;;;;53.87;21.73;;;;;;;3.20;100.00;98886.66;5110202;56;1139015;-76
2023/03/08 16:13:11;;;;;;;68.13;23.70;;;;;;;3.16;100.00;98889.95;5147613;55;1138862;-79
2023/03/08 16:18:17;;;;;;;96.17;35.73;;;;;;;3.18;100.00;98887.59;5153863;55;1138839;-75
2023/03/08 16:23:23;;;;;;;48.42;20.88;;;;;;;3.25;100.00;98881.90;5201032;55;1139010;-75
2023/03/08 16:28:29;;;;;;;19.63;8.47;;;;;;;3.24;100.00;98881.53;5207765;55;1138952;-78
2023/03/08 16:33:35;;;;;;;21.90;10.00;;;;;;;3.08;100.00;98874.83;5228575;55;1136560;-79
2023/03/08 16:38:42;;;;;;;27.10;10.57;;;;;;;2.99;100.00;98879.42;5207847;55;1138846;-73
2023/03/08 16:43:48;;;;;;;26.57;14.93;;;;;;;2.96;100.00;98879.64;5184297;55;1138836;-77
2023/03/08 16:48:53;;;;;;;42.13;22.97;;;;;;;2.93;100.00;98881.16;5135793;55;1138878;-74
2023/03/08 16:53:59;;;;;;;68.43;24.53;;;;;;;2.96;100.00;98876.20;5115873;55;1138748;-77
2023/03/08 16:59:05;;;;;;;45.60;18.60;;;;;;;2.99;100.00;98874.67;5130120;55;1138864;-72
2023/03/08 17:04:12;;;;;;;47.37;24.53;;;;;;;2.88;100.00;98883.77;5138387;55;1138719;-72
2023/03/08 17:09:18;;;;;;;39.50;18.57;;;;;;;2.74;100.00;98878.23;5174546;55;1138751;-75
2023/03/08 17:14:24;;;;;;;63.23;22.10;;;;;;;2.69;100.00;98877.72;5150029;55;1138817;-69
2023/03/08 17:19:29;;;;;;;61.48;19.23;;;;;;;2.67;100.00;98873.08;5141322;55;1138812;-72
2023/03/08 17:24:35;;;;;;;65.60;29.43;;;;;;;2.63;100.00;98869.02;5160433;55;1138842;-77
2023/03/08 17:29:43;;;;;;;85.17;37.83;;;;;;;2.64;100.00;98862.38;5138461;55;1138812;-72
2023/03/08 17:34:49;;;;;;;52.23;23.23;;;;;;;2.65;100.00;98862.74;5091489;56;1139209;-75
2023/03/08 17:39:55;;;;;;;76.60;31.00;;;;;;;2.71;100.00;98854.95;5164034;55;1138899;-70
2023/03/08 17:45:05;;;;;;;65.20;27.60;;;;;;;2.76;100.00;98849.75;5197828;55;1138777;-67
2023/03/08 17:50:16;;;;;;;38.60;19.67;;;;;;;2.83;100.00;98852.29;5177375;55;1138660;-63
2023/03/08 17:55:19;;;;;;;64.77;28.33;;;;;;;2.85;100.00;98856.57;5176960;55;1138929;-65
2023/03/08 18:00:25;;;;;;;53.65;23.98;;;;;;;2.83;100.00;98858.81;5197541;55;1139061;-68
2023/03/08 18:05:31;;;;;;;41.45;18.42;;;;;;;2.90;100.00;98857.08;5177672;55;1138816;-72
2023/03/08 18:10:37;;;;;;;43.77;22.57;;;;;;;2.93;100.00;98851.61;5177242;55;1138796;-71
2023/03/08 18:15:44;;;;;;;90.00;36.23;;;;;;;2.95;100.00;98848.42;5185441;55;1138816;-73
2023/03/08 18:20:50;;;;;;;116.23;48.07;;;;;;;2.83;100.00;98850.98;5130920;55;1138722;-66
2023/03/08 18:25:58;;;;;;;105.32;47.03;;;;;;;2.79;100.00;98844.78;5164516;55;1141000;-73
2023/03/08 18:31:14;;;;;;;140.30;60.63;;;;;;;2.80;100.00;98838.62;5180121;55;1140886;-69
2023/03/08 18:36:20;;;;;;;227.87;83.50;;;;;;;2.79;100.00;98847.39;5130950;55;1140831;-75
2023/03/08 18:41:29;;;;;;;85.32;34.25;;;;;;;2.67;100.00;98846.51;5130433;56;1141045;-73
2023/03/08 18:46:36;;;;;;;37.78;18.00;;;;;;;2.56;100.00;98843.01;5150983;56;1138705;-70
2023/03/08 18:51:43;;;;;;;20.00;10.67;;;;;;;2.46;100.00;98831.06;5130972;56;1138790;-69
2023/03/08 18:56:52;;;;;;;18.37;10.07;;;;;;;2.45;100.00;98831.53;5131111;55;1138926;-67
2023/03/08 19:01:58;;;;;;;20.15;12.37;;;;;;;2.48;100.00;98826.58;5130750;56;1138895;-71
2023/03/08 19:07:04;;;;;;;15.55;9.63;;;;;;;2.47;100.00;98827.52;5150823;56;1138705;-69
2023/03/08 19:12:11;;;;;;;17.20;11.37;;;;;;;2.37;100.00;98823.44;5130748;56;1136728;-75
2023/03/08 19:17:17;;;;;;;24.67;10.87;;;;;;;2.29;100.00;98822.33;5215543;55;1139076;-70
2023/03/08 19:22:24;;;;;;;47.67;19.83;;;;;;;2.25;100.00;98816.48;5156374;55;1138844;-69
2023/03/08 19:27:29;;;;;;;35.70;17.65;;;;;;;2.19;100.00;98818.68;5136201;55;1138694;-74
2023/03/08 19:32:35;;;;;;;30.47;13.30;;;;;;;2.14;100.00;98812.48;5151620;55;1138821;-71
2023/03/08 19:37:41;;;;;;;29.50;13.87;;;;;;;2.03;100.00;98807.19;5152174;55;1139114;-73
2023/03/08 19:42:47;;;;;;;24.87;12.80;;;;;;;1.97;100.00;98798.52;5139389;55;1138812;-70
2023/03/08 19:47:53;;;;;;;22.10;13.17;;;;;;;1.88;100.00;98791.31;5180661;55;1138779;-79
2023/03/08 19:52:59;;;;;;;32.43;14.07;;;;;;;1.84;100.00;98785.94;5218092;55;1139039;-80
2023/03/08 19:58:05;;;;;;;20.63;12.50;;;;;;;1.79;100.00;98792.80;5238540;55;1139228;-80
2023/03/08 20:03:16;;;;;;;31.53;16.37;;;;;;;1.80;100.00;98789.25;5218188;55;1138590;-74
2023/03/08 20:08:25;;;;;;;30.23;15.70;;;;;;;1.83;100.00;98792.13;5218349;55;1138636;-77
2023/03/08 20:13:31;;;;;;;40.58;19.07;;;;;;;1.82;100.00;98793.06;5238991;55;1138824;-77
2023/03/08 20:18:37;;;;;;;48.78;22.20;;;;;;;1.83;100.00;98780.39;5200952;55;1138865;-75
2023/03/08 20:23:43;;;;;;;29.40;15.83;;;;;;;1.86;100.00;98786.67;5097063;55;1138865;-73
2023/03/08 20:28:51;;;;;;;30.87;17.57;;;;;;;1.86;100.00;98779.69;5130105;55;1138832;-77
2023/03/08 20:33:58;;;;;;;46.43;21.30;;;;;;;1.83;100.00;98774.71;5173595;55;1138796;-76
2023/03/08 20:39:05;;;;;;;41.15;21.00;;;;;;;1.80;100.00;98772.78;5097747;55;1139004;-77
2023/03/08 20:44:12;;;;;;;36.70;18.07;;;;;;;1.80;100.00;98772.78;5117483;55;1138809;-74
2023/03/08 20:49:18;;;;;;;40.37;20.43;;;;;;;1.73;100.00;98791.44;5097362;55;1138897;-75
2023/03/08 20:54:24;;;;;;;46.13;21.07;;;;;;;1.66;100.00;98784.16;5113861;55;1138862;-73
2023/03/08 20:59:30;;;;;;;47.67;23.18;;;;;;;1.62;100.00;98783.53;5173706;55;1138790;-73
2023/03/08 21:04:35;;;;;;;41.08;20.95;;;;;;;1.60;100.00;98780.67;5139194;55;1138865;-72
2023/03/08 21:09:44;;;;;;;40.77;21.47;;;;;;;1.59;100.00;98790.72;5097099;55;1138680;-73
2023/03/08 21:14:52;;;;;;;48.13;21.20;;;;;;;1.58;100.00;98789.89;5191181;55;1138997;-78
2023/03/08 21:19:58;;;;;;;55.40;26.40;;;;;;;1.47;100.00;98778.07;5173020;55;1138864;-77
2023/03/08 21:25:05;;;;;;;50.63;22.63;;;;;;;1.41;100.00;98768.89;5027946;56;1138801;-75
2023/03/08 21:30:12;;;;;;;47.27;23.20;;;;;;;1.46;100.00;98759.94;5066359;55;1138792;-77
2023/03/08 21:35:17;;;;;;;46.63;22.73;;;;;;;1.48;100.00;98758.06;5046502;55;1138909;-77
2023/03/08 21:40:23;;;;;;;44.93;24.20;;;;;;;1.44;100.00;98763.11;5032904;56;1138709;-74
2023/03/08 21:45:29;;;;;;;55.30;24.23;;;;;;;1.42;100.00;98760.61;5063117;55;1138823;-74
2023/03/08 21:50:36;;;;;;;47.20;20.95;;;;;;;1.43;100.00;98755.77;5046549;56;1138747;-76
2023/03/08 21:55:42;;;;;;;52.33;25.23;;;;;;;1.42;100.00;98748.89;5046521;56;1138953;-73
2023/03/08 22:00:48;;;;;;;44.43;21.70;;;;;;;1.36;100.00;98743.65;5070506;56;1138734;-75
2023/03/08 22:05:54;;;;;;;41.60;21.93;;;;;;;1.29;100.00;98744.99;5046055;57;1138918;-74
2023/03/08 22:11:00;;;;;;;40.55;19.25;;;;;;;1.31;100.00;98748.33;5046686;55;1138998;-75
2023/03/08 22:16:06;;;;;;;41.07;19.33;;;;;;;1.25;100.00;98740.92;5065789;56;1138806;-77
2023/03/08 22:21:12;;;;;;;39.90;20.40;;;;;;;1.20;100.00;98747.40;4995428;56;1139055;-74
2023/03/08 22:26:18;;;;;;;34.07;18.73;;;;;;;1.22;100.00;98752.84;5077082;55;1138794;-76
2023/03/08 22:31:26;;;;;;;35.67;17.70;;;;;;;1.24;100.00;98749.67;5081089;56;1138780;-77
2023/03/08 22:36:32;;;;;;;36.85;18.35;;;;;;;1.26;100.00;98751.70;5044608;56;1138926;-75
2023/03/08 22:41:38;;;;;;;34.90;16.67;;;;;;;1.21;100.00;98748.59;5068459;56;1138829;-73
2023/03/08 22:46:43;;;;;;;36.73;17.90;;;;;;;1.15;100.00;98742.49;5064808;56;1138951;-77
2023/03/08 22:51:51;;;;;;;33.40;17.40;;;;;;;1.08;100.00;98736.02;5045689;56;1138793;-74
2023/03/08 22:56:56;;;;;;;35.93;18.33;;;;;;;1.07;100.00;98734.84;4937574;57;1138816;-77
2023/03/08 23:02:04;;;;;;;32.65;16.40;;;;;;;1.05;100.00;98733.64;5045907;56;1138691;-75
2023/03/08 23:07:11;;;;;;;33.37;18.00;;;;;;;0.91;100.00;98726.77;4981418;57;1138646;-76
2023/03/08 23:12:17;;;;;;;35.70;16.23;;;;;;;0.91;100.00;98726.77;5060656;56;1138899;-72
2023/03/08 23:17:24;;;;;;;45.52;19.62;;;;;;;0.94;100.00;98747.35;5072851;56;1138859;-75